createdAt,value
2018-03-30T00:00:19.324Z,0.00
2018-03-30T00:01:19.358Z,0.00
2018-03-30T00:03:12.338Z,0.00
2018-03-30T00:04:12.390Z,0.00
2018-03-30T00:06:05.388Z,0.00
2018-03-30T00:07:05.427Z,0.00
2018-03-30T00:08:58.413Z,0.00
2018-03-30T00:09:58.466Z,0.00
2018-03-30T00:11:51.468Z,0.00
2018-03-30T00:12:51.497Z,0.00
2018-03-30T00:14:44.473Z,0.00
2018-03-30T00:15:44.530Z,0.00
2018-03-30T00:17:37.524Z,0.00
2018-03-30T00:18:37.558Z,0.00
2018-03-30T00:20:30.560Z,0.00
2018-03-30T00:21:30.595Z,0.00
2018-03-30T00:23:23.577Z,0.00
2018-03-30T00:24:23.630Z,0.00
2018-03-30T00:26:16.625Z,0.00
2018-03-30T00:27:16.662Z,0.00
2018-03-30T00:29:09.638Z,0.00
2018-03-30T00:30:09.693Z,0.00
2018-03-30T00:32:02.697Z,0.00
2018-03-30T00:33:02.725Z,0.00
2018-03-30T00:34:55.710Z,0.00
2018-03-30T00:35:55.765Z,0.00
2018-03-30T00:37:48.761Z,0.00
2018-03-30T00:38:48.814Z,0.00
2018-03-30T00:40:41.794Z,0.00
2018-03-30T00:41:41.833Z,0.00
2018-03-30T00:43:34.808Z,0.00
2018-03-30T00:44:34.864Z,0.00
2018-03-30T00:46:27.859Z,0.00
2018-03-30T00:47:27.896Z,0.00
2018-03-30T00:49:20.870Z,0.00
2018-03-30T00:50:20.934Z,0.00
2018-03-30T00:52:13.930Z,0.00
2018-03-30T00:53:13.969Z,0.00
2018-03-30T00:55:06.942Z,0.00
2018-03-30T00:56:07.002Z,0.00
2018-03-30T00:57:59.990Z,0.00
2018-03-30T00:59:00.027Z,0.00
2018-03-30T01:00:53.025Z,0.00
2018-03-30T01:01:53.059Z,0.00
2018-03-30T01:03:46.035Z,0.00
2018-03-30T01:04:46.089Z,0.00
2018-03-30T01:06:39.091Z,0.00
2018-03-30T01:07:39.127Z,0.00
2018-03-30T01:09:32.107Z,0.00
2018-03-30T01:10:32.167Z,0.00
2018-03-30T01:12:25.169Z,0.00
2018-03-30T01:13:25.205Z,0.00
2018-03-30T01:15:18.184Z,0.00
2018-03-30T01:16:18.241Z,0.00
2018-03-30T01:18:11.236Z,0.00
2018-03-30T01:19:11.273Z,0.00
2018-03-30T01:21:04.270Z,0.00
2018-03-30T01:22:04.307Z,0.00
2018-03-30T01:23:57.288Z,0.00
2018-03-30T01:24:57.346Z,0.00
2018-03-30T01:26:50.354Z,0.00
2018-03-30T01:27:50.390Z,0.00
2018-03-30T01:29:43.371Z,0.00
2018-03-30T01:30:43.427Z,0.00
2018-03-30T01:32:36.420Z,0.00
2018-03-30T01:33:36.454Z,0.00
2018-03-30T01:35:29.442Z,0.00
2018-03-30T01:36:29.490Z,0.00
2018-03-30T01:38:22.485Z,0.00
2018-03-30T01:39:22.519Z,0.00
2018-03-30T01:41:15.515Z,0.00
2018-03-30T01:42:15.550Z,0.00
2018-03-30T01:44:08.525Z,0.00
2018-03-30T01:45:08.580Z,0.00
2018-03-30T01:47:01.579Z,0.00
2018-03-30T01:48:01.617Z,0.00
2018-03-30T01:49:54.594Z,0.00
2018-03-30T01:50:54.650Z,0.00
2018-03-30T01:52:47.642Z,0.00
2018-03-30T01:53:47.678Z,0.00
2018-03-30T01:55:40.654Z,0.00
2018-03-30T01:56:40.708Z,0.00
2018-03-30T01:58:33.709Z,0.00
2018-03-30T01:59:33.741Z,0.00
2018-03-30T02:01:26.737Z,0.00
2018-03-30T02:02:26.773Z,0.00
2018-03-30T02:04:19.748Z,0.00
2018-03-30T02:05:19.804Z,0.00
2018-03-30T02:07:12.799Z,0.00
2018-03-30T02:08:12.835Z,0.00
2018-03-30T02:10:05.814Z,0.00
2018-03-30T02:11:05.869Z,0.00
2018-03-30T02:12:58.872Z,0.00
2018-03-30T02:13:58.899Z,0.00
2018-03-30T02:15:51.876Z,0.00
2018-03-30T02:16:51.933Z,0.00
2018-03-30T02:18:44.924Z,0.00
2018-03-30T02:19:44.962Z,0.00
2018-03-30T02:21:37.965Z,0.00
2018-03-30T02:22:37.997Z,0.00
2018-03-30T02:24:31.019Z,0.00
2018-03-30T02:25:31.031Z,0.00
2018-03-30T02:27:24.540Z,0.00
2018-03-30T02:28:24.571Z,0.00
2018-03-30T02:30:17.554Z,0.00
2018-03-30T02:31:17.605Z,0.00
2018-03-30T02:33:10.605Z,0.00
2018-03-30T02:34:10.640Z,0.00
2018-03-30T02:36:03.618Z,0.00
2018-03-30T02:37:03.673Z,0.00
2018-03-30T02:38:56.671Z,0.00
2018-03-30T02:39:56.708Z,0.00
2018-03-30T02:41:49.706Z,0.00
2018-03-30T02:42:49.742Z,0.00
2018-03-30T02:44:42.716Z,0.00
2018-03-30T02:45:42.774Z,0.00
2018-03-30T02:47:35.767Z,0.00
2018-03-30T02:48:35.801Z,0.00
2018-03-30T02:50:28.787Z,0.00
2018-03-30T02:51:28.844Z,0.00
2018-03-30T02:53:21.841Z,0.00
2018-03-30T02:54:21.879Z,0.00
2018-03-30T02:56:14.855Z,0.00
2018-03-30T02:57:14.912Z,0.00
2018-03-30T02:59:07.903Z,0.00
2018-03-30T03:00:07.943Z,0.00
2018-03-30T03:02:00.935Z,0.00
2018-03-30T03:03:00.971Z,0.00
2018-03-30T03:04:53.976Z,0.00
2018-03-30T03:05:54.031Z,0.00
2018-03-30T03:07:47.028Z,0.00
2018-03-30T03:08:47.061Z,0.00
2018-03-30T03:10:40.044Z,0.00
2018-03-30T03:11:40.098Z,0.00
2018-03-30T03:13:33.093Z,0.00
2018-03-30T03:14:33.127Z,0.00
2018-03-30T03:16:26.103Z,0.00
2018-03-30T03:17:26.159Z,0.00
2018-03-30T03:19:19.155Z,0.00
2018-03-30T03:20:19.192Z,0.00
2018-03-30T03:22:12.196Z,0.00
2018-03-30T03:23:12.227Z,0.00
2018-03-30T03:25:05.215Z,0.00
2018-03-30T03:26:05.268Z,0.00
2018-03-30T03:27:58.780Z,0.00
2018-03-30T03:28:58.815Z,0.00
2018-03-30T03:30:51.795Z,0.00
2018-03-30T03:31:51.850Z,0.00
2018-03-30T03:33:44.850Z,0.00
2018-03-30T03:34:44.892Z,0.00
2018-03-30T03:36:37.868Z,0.00
2018-03-30T03:37:37.924Z,0.00
2018-03-30T03:39:30.918Z,0.00
2018-03-30T03:40:30.956Z,0.00
2018-03-30T03:42:23.950Z,0.00
2018-03-30T03:43:23.986Z,0.00
2018-03-30T03:45:16.961Z,0.00
2018-03-30T03:46:17.015Z,0.00
2018-03-30T03:48:10.023Z,0.00
2018-03-30T03:49:10.061Z,0.00
2018-03-30T03:51:03.043Z,0.00
2018-03-30T03:52:03.093Z,0.00
2018-03-30T03:53:56.606Z,0.00
2018-03-30T03:54:56.647Z,0.00
2018-03-30T03:56:49.625Z,0.00
2018-03-30T03:57:49.681Z,0.00
2018-03-30T03:59:42.676Z,0.00
2018-03-30T04:00:42.711Z,0.00
2018-03-30T04:02:35.719Z,0.00
2018-03-30T04:03:35.752Z,0.00
2018-03-30T04:05:28.744Z,0.00
2018-03-30T04:06:28.787Z,0.00
2018-03-30T04:08:21.783Z,0.00
2018-03-30T04:09:21.820Z,0.00
2018-03-30T04:11:14.799Z,0.00
2018-03-30T04:12:14.854Z,0.00
2018-03-30T04:14:07.853Z,0.00
2018-03-30T04:15:07.890Z,0.00
2018-03-30T04:17:00.872Z,0.00
2018-03-30T04:18:00.926Z,0.00
2018-03-30T04:19:53.922Z,0.00
2018-03-30T04:20:53.963Z,0.00
2018-03-30T04:22:46.952Z,0.00
2018-03-30T04:23:46.991Z,0.00
2018-03-30T04:25:39.971Z,0.00
2018-03-30T04:26:40.027Z,0.00
2018-03-30T04:28:33.030Z,0.00
2018-03-30T04:29:33.063Z,0.00
2018-03-30T04:31:26.040Z,0.00
2018-03-30T04:32:26.097Z,0.00
2018-03-30T04:34:19.091Z,0.00
2018-03-30T04:35:19.128Z,0.00
2018-03-30T04:37:12.110Z,0.00
2018-03-30T04:38:12.168Z,0.00
2018-03-30T04:40:05.166Z,0.00
2018-03-30T04:41:05.203Z,0.00
2018-03-30T04:42:58.286Z,4.00
2018-03-30T04:43:58.288Z,0.00
2018-03-30T04:45:51.265Z,4.00
2018-03-30T04:46:51.314Z,4.00
2018-03-30T04:48:44.330Z,4.00
2018-03-30T04:49:44.311Z,8.00
2018-03-30T04:51:37.298Z,12.00
2018-03-30T04:52:37.348Z,12.00
2018-03-30T04:54:30.351Z,16.00
2018-03-30T04:55:30.384Z,20.00
2018-03-30T04:57:23.366Z,28.00
2018-03-30T04:58:23.421Z,32.00
2018-03-30T05:00:16.417Z,44.00
2018-03-30T05:01:16.452Z,48.00
2018-03-30T05:03:09.454Z,56.00
2018-03-30T05:04:09.490Z,60.00
2018-03-30T05:06:02.468Z,60.00
2018-03-30T05:07:02.528Z,64.00
2018-03-30T05:08:55.523Z,68.00
2018-03-30T05:09:55.558Z,68.00
2018-03-30T05:11:48.535Z,72.00
2018-03-30T05:12:48.598Z,80.00
2018-03-30T05:14:43.516Z,88.00
2018-03-30T05:15:43.312Z,92.00
2018-03-30T05:17:36.115Z,100.00
2018-03-30T05:18:36.075Z,116.00
2018-03-30T05:20:30.056Z,140.00
2018-03-30T05:21:29.624Z,160.00
2018-03-30T05:23:22.571Z,196.00
2018-03-30T05:24:22.606Z,204.00
2018-03-30T05:26:15.586Z,224.00
2018-03-30T05:27:15.647Z,244.00
2018-03-30T05:29:09.152Z,284.00
2018-03-30T05:30:09.206Z,280.00
2018-03-30T05:32:02.225Z,280.00
2018-03-30T05:33:02.251Z,304.00
2018-03-30T05:34:55.280Z,380.00
2018-03-30T05:35:55.288Z,404.00
2018-03-30T05:37:48.273Z,384.00
2018-03-30T05:38:48.332Z,368.00
2018-03-30T05:40:41.349Z,428.00
2018-03-30T05:41:41.333Z,468.00
2018-03-30T05:43:34.317Z,500.00
2018-03-30T05:44:34.353Z,468.00
2018-03-30T05:46:27.332Z,596.00
2018-03-30T05:47:27.385Z,684.00
2018-03-30T05:49:20.394Z,820.00
2018-03-30T05:50:20.425Z,888.00
2018-03-30T05:52:13.422Z,980.00
2018-03-30T05:53:13.466Z,1008.00
2018-03-30T05:55:06.482Z,1148.00
2018-03-30T05:56:06.514Z,1272.00
2018-03-30T05:57:59.492Z,1556.00
2018-03-30T05:58:59.545Z,1732.00
2018-03-30T06:00:52.540Z,1848.00
2018-03-30T06:01:52.575Z,1896.00
2018-03-30T06:03:45.577Z,1944.00
2018-03-30T06:04:45.614Z,1972.00
2018-03-30T06:06:38.594Z,1992.00
2018-03-30T06:07:38.648Z,2040.00
2018-03-30T06:09:31.644Z,2288.00
2018-03-30T06:10:31.684Z,2328.00
2018-03-30T06:12:24.657Z,2236.00
2018-03-30T06:13:24.747Z,2168.00
2018-03-30T06:15:17.713Z,2116.00
2018-03-30T06:16:17.749Z,2108.00
2018-03-30T06:18:10.723Z,2084.00
2018-03-30T06:19:10.805Z,2092.00
2018-03-30T06:21:03.807Z,2244.00
2018-03-30T06:22:03.826Z,2336.00
2018-03-30T06:23:56.824Z,2600.00
2018-03-30T06:24:56.857Z,2788.00
2018-03-30T06:26:49.889Z,3248.00
2018-03-30T06:27:49.895Z,3492.00
2018-03-30T06:29:42.897Z,3752.00
2018-03-30T06:30:42.932Z,3700.00
2018-03-30T06:32:35.910Z,3468.00
2018-03-30T06:33:35.965Z,3388.00
2018-03-30T06:35:28.971Z,3492.00
2018-03-30T06:36:29.008Z,3564.00
2018-03-30T06:38:21.982Z,3704.00
2018-03-30T06:39:22.038Z,3776.00
2018-03-30T06:41:15.562Z,3968.00
2018-03-30T06:42:15.600Z,4144.00
2018-03-30T06:44:08.703Z,4280.00
2018-03-30T06:45:08.719Z,4260.00
2018-03-30T06:47:03.161Z,4288.00
2018-03-30T06:48:03.211Z,4372.00
2018-03-30T06:49:56.312Z,4700.00
2018-03-30T06:50:56.266Z,4988.00
2018-03-30T06:52:49.198Z,5696.00
2018-03-30T06:53:49.255Z,6596.00
2018-03-30T06:55:42.765Z,8028.00
2018-03-30T06:56:42.798Z,8396.00
2018-03-30T06:58:35.784Z,8212.00
2018-03-30T06:59:35.839Z,8040.00
2018-03-30T07:01:28.836Z,8384.00
2018-03-30T07:02:28.873Z,8772.00
2018-03-30T07:04:21.879Z,8960.00
2018-03-30T07:05:21.917Z,8740.00
2018-03-30T07:07:14.896Z,9372.00
2018-03-30T07:08:14.952Z,9508.00
2018-03-30T07:10:07.950Z,21792.00
2018-03-30T07:11:07.988Z,32480.00
2018-03-30T07:13:00.984Z,34336.00
2018-03-30T07:14:01.340Z,41120.00
2018-03-30T07:15:54.031Z,25376.00
2018-03-30T07:16:54.081Z,24096.00
2018-03-30T07:18:47.060Z,37280.00
2018-03-30T07:19:47.108Z,32480.00
2018-03-30T07:21:40.667Z,34304.00
2018-03-30T07:22:40.677Z,29056.00
2018-03-30T07:24:33.671Z,17344.00
2018-03-30T07:25:33.710Z,13440.00
2018-03-30T07:27:26.698Z,7972.00
2018-03-30T07:28:26.761Z,8092.00
2018-03-30T07:30:19.766Z,10396.00
2018-03-30T07:31:19.804Z,11052.00
2018-03-30T07:33:12.802Z,9988.00
2018-03-30T07:34:12.860Z,9860.00
2018-03-30T07:36:05.867Z,10216.00
2018-03-30T07:37:05.914Z,10392.00
2018-03-30T07:38:58.899Z,12320.00
2018-03-30T07:39:58.956Z,14540.00
2018-03-30T07:41:51.964Z,15292.00
2018-03-30T07:42:51.999Z,17088.00
2018-03-30T07:44:45.012Z,18400.00
2018-03-30T07:45:45.047Z,22528.00
2018-03-30T07:47:38.035Z,34464.00
2018-03-30T07:48:38.090Z,15188.00
2018-03-30T07:50:31.147Z,11524.00
2018-03-30T07:51:31.134Z,9480.00
2018-03-30T07:53:24.124Z,7244.00
2018-03-30T07:54:24.243Z,5948.00
2018-03-30T07:56:17.187Z,4764.00
2018-03-30T07:57:17.228Z,4800.00
2018-03-30T07:59:10.244Z,5008.00
2018-03-30T08:00:10.272Z,5276.00
2018-03-30T08:02:03.796Z,5704.00
2018-03-30T08:03:03.825Z,5964.00
2018-03-30T08:04:56.828Z,6476.00
2018-03-30T08:05:56.866Z,6132.00
2018-03-30T08:07:49.858Z,5796.00
2018-03-30T08:08:49.913Z,5396.00
2018-03-30T08:10:42.931Z,5348.00
2018-03-30T08:11:42.954Z,5628.00
2018-03-30T08:13:35.978Z,5748.00
2018-03-30T08:14:35.993Z,5752.00
2018-03-30T08:16:28.996Z,5584.00
2018-03-30T08:17:29.034Z,5780.00
2018-03-30T08:19:22.024Z,6572.00
2018-03-30T08:20:22.081Z,6740.00
2018-03-30T08:22:15.087Z,6304.00
2018-03-30T08:23:15.128Z,5836.00
2018-03-30T08:25:08.128Z,6132.00
2018-03-30T08:26:08.167Z,6660.00
2018-03-30T08:28:01.169Z,7124.00
2018-03-30T08:29:01.212Z,7412.00
2018-03-30T08:30:54.212Z,8120.00
2018-03-30T08:31:54.248Z,8264.00
2018-03-30T08:33:47.233Z,8856.00
2018-03-30T08:34:47.292Z,8608.00
2018-03-30T08:36:40.293Z,7472.00
2018-03-30T08:37:40.332Z,7032.00
2018-03-30T08:39:33.331Z,6928.00
2018-03-30T08:40:33.379Z,6944.00
2018-03-30T08:42:26.385Z,8332.00
2018-03-30T08:43:26.418Z,9172.00
2018-03-30T08:45:19.419Z,9652.00
2018-03-30T08:46:19.458Z,9604.00
2018-03-30T08:48:12.445Z,9388.00
2018-03-30T08:49:12.518Z,9168.00
2018-03-30T08:51:05.508Z,8300.00
2018-03-30T08:52:05.801Z,7752.00
2018-03-30T08:53:58.534Z,6764.00
2018-03-30T08:54:58.582Z,6548.00
2018-03-30T08:56:51.591Z,7008.00
2018-03-30T08:57:51.629Z,7604.00
2018-03-30T08:59:44.611Z,8920.00
2018-03-30T09:00:44.673Z,9424.00
2018-03-30T09:02:37.672Z,10864.00
2018-03-30T09:03:37.711Z,11896.00
2018-03-30T09:05:30.713Z,11908.00
2018-03-30T09:06:30.750Z,11652.00
2018-03-30T09:08:23.737Z,12140.00
2018-03-30T09:09:23.788Z,12000.00
2018-03-30T09:11:16.791Z,12136.00
2018-03-30T09:12:16.860Z,12852.00
2018-03-30T09:14:09.833Z,13276.00
2018-03-30T09:15:09.913Z,13568.00
2018-03-30T09:17:02.898Z,12868.00
2018-03-30T09:18:02.942Z,12664.00
2018-03-30T09:19:55.925Z,13204.00
2018-03-30T09:20:56.005Z,13704.00
2018-03-30T09:22:49.107Z,15920.00
2018-03-30T09:23:49.101Z,16608.00
2018-03-30T09:25:42.066Z,16832.00
2018-03-30T09:26:42.103Z,17216.00
2018-03-30T09:28:35.100Z,16864.00
2018-03-30T09:29:35.144Z,16960.00
2018-03-30T09:31:28.147Z,16176.00
2018-03-30T09:32:28.205Z,16640.00
2018-03-30T09:34:21.176Z,15844.00
2018-03-30T09:35:21.233Z,15456.00
2018-03-30T09:37:14.263Z,13184.00
2018-03-30T09:38:14.286Z,12536.00
2018-03-30T09:40:07.270Z,12984.00
2018-03-30T09:41:07.330Z,13520.00
2018-03-30T09:43:00.335Z,13096.00
2018-03-30T09:44:00.375Z,12640.00
2018-03-30T09:45:53.384Z,12116.00
2018-03-30T09:46:53.424Z,11848.00
2018-03-30T09:48:46.412Z,11684.00
2018-03-30T09:49:46.472Z,12440.00
2018-03-30T09:51:39.995Z,14372.00
2018-03-30T09:52:40.038Z,14928.00
2018-03-30T09:54:33.022Z,14084.00
2018-03-30T09:55:33.080Z,12796.00
2018-03-30T09:57:26.129Z,9004.00
2018-03-30T09:58:26.131Z,7164.00
2018-03-30T10:00:19.121Z,5616.00
2018-03-30T10:01:19.177Z,5392.00
2018-03-30T10:03:12.701Z,5124.00
2018-03-30T10:04:12.735Z,5260.00
2018-03-30T10:06:05.730Z,5096.00
2018-03-30T10:07:05.783Z,5108.00
2018-03-30T10:08:58.758Z,5064.00
2018-03-30T10:09:58.815Z,5136.00
2018-03-30T10:11:51.826Z,5020.00
2018-03-30T10:12:51.860Z,5044.00
2018-03-30T10:14:44.848Z,5276.00
2018-03-30T10:15:44.902Z,5480.00
2018-03-30T10:17:37.903Z,5788.00
2018-03-30T10:18:37.943Z,5936.00
2018-03-30T10:20:30.928Z,5744.00
2018-03-30T10:21:30.989Z,5500.00
2018-03-30T10:23:23.992Z,5720.00
2018-03-30T10:24:24.031Z,5552.00
2018-03-30T10:26:17.032Z,6044.00
2018-03-30T10:27:17.072Z,6440.00
2018-03-30T10:29:10.062Z,6436.00
2018-03-30T10:30:10.119Z,6484.00
2018-03-30T10:32:03.119Z,7036.00
2018-03-30T10:33:03.161Z,7048.00
2018-03-30T10:34:56.147Z,5572.00
2018-03-30T10:35:56.201Z,5864.00
2018-03-30T10:37:49.206Z,5444.00
2018-03-30T10:38:49.248Z,5396.00
2018-03-30T10:40:42.239Z,5708.00
2018-03-30T10:41:42.300Z,5928.00
2018-03-30T10:43:35.343Z,6108.00
2018-03-30T10:44:35.342Z,6164.00
2018-03-30T10:46:28.348Z,6212.00
2018-03-30T10:47:28.387Z,6228.00
2018-03-30T10:49:21.374Z,6548.00
2018-03-30T10:50:21.434Z,6808.00
2018-03-30T10:52:14.438Z,7512.00
2018-03-30T10:53:14.481Z,7692.00
2018-03-30T10:55:07.465Z,7756.00
2018-03-30T10:56:07.521Z,7836.00
2018-03-30T10:58:00.542Z,7744.00
2018-03-30T10:59:00.571Z,7660.00
2018-03-30T11:00:53.563Z,7256.00
2018-03-30T11:01:53.621Z,7044.00
2018-03-30T11:03:46.624Z,6844.00
2018-03-30T11:04:46.664Z,6868.00
2018-03-30T11:06:39.671Z,6916.00
2018-03-30T11:07:39.710Z,7076.00
2018-03-30T11:09:32.698Z,7828.00
2018-03-30T11:10:32.754Z,8308.00
2018-03-30T11:12:25.760Z,8976.00
2018-03-30T11:13:25.801Z,9428.00
2018-03-30T11:15:18.790Z,10944.00
2018-03-30T11:16:18.847Z,12100.00
2018-03-30T11:18:11.866Z,12424.00
2018-03-30T11:19:11.907Z,11756.00
2018-03-30T11:21:04.898Z,11148.00
2018-03-30T11:22:04.960Z,10488.00
2018-03-30T11:23:57.965Z,10472.00
2018-03-30T11:24:58.008Z,10224.00
2018-03-30T11:26:51.021Z,8908.00
2018-03-30T11:27:51.061Z,8432.00
2018-03-30T11:29:44.048Z,7408.00
2018-03-30T11:30:44.112Z,7704.00
2018-03-30T11:32:37.117Z,8508.00
2018-03-30T11:33:37.174Z,8868.00
2018-03-30T11:35:30.147Z,8284.00
2018-03-30T11:36:30.209Z,7472.00
2018-03-30T11:38:23.215Z,5760.00
2018-03-30T11:39:23.260Z,5300.00
2018-03-30T11:41:16.247Z,5000.00
2018-03-30T11:42:16.310Z,4668.00
2018-03-30T11:44:09.311Z,4308.00
2018-03-30T11:45:09.362Z,4120.00
2018-03-30T11:47:02.360Z,4036.00
2018-03-30T11:48:02.400Z,4040.00
2018-03-30T11:49:55.395Z,3996.00
2018-03-30T11:50:55.462Z,3960.00
2018-03-30T11:52:48.464Z,3724.00
2018-03-30T11:53:48.505Z,3852.00
2018-03-30T11:55:41.490Z,3912.00
2018-03-30T11:56:41.552Z,3928.00
2018-03-30T11:58:34.566Z,3880.00
2018-03-30T11:59:34.608Z,3856.00
2018-03-30T12:01:27.596Z,3744.00
2018-03-30T12:02:27.661Z,3736.00
2018-03-30T12:04:20.663Z,3720.00
2018-03-30T12:05:20.703Z,3740.00
2018-03-30T12:07:13.708Z,3720.00
2018-03-30T12:08:13.749Z,3740.00
2018-03-30T12:10:06.735Z,3704.00
2018-03-30T12:11:06.794Z,3676.00
2018-03-30T12:12:59.816Z,3632.00
2018-03-30T12:13:59.852Z,3604.00
2018-03-30T12:15:52.836Z,3636.00
2018-03-30T12:16:52.901Z,3704.00
2018-03-30T12:18:45.910Z,3928.00
2018-03-30T12:19:45.944Z,4156.00
2018-03-30T12:21:38.939Z,4576.00
2018-03-30T12:22:38.997Z,4764.00
2018-03-30T12:24:32.001Z,4972.00
2018-03-30T12:25:32.042Z,5020.00
2018-03-30T12:27:25.051Z,5508.00
2018-03-30T12:28:25.091Z,5600.00
2018-03-30T12:30:18.080Z,5560.00
2018-03-30T12:31:18.142Z,5592.00
2018-03-30T12:33:11.157Z,5548.00
2018-03-30T12:34:11.195Z,5540.00
2018-03-30T12:36:04.186Z,5420.00
2018-03-30T12:37:04.241Z,5588.00
2018-03-30T12:38:57.252Z,5936.00
2018-03-30T12:39:57.330Z,6184.00
2018-03-30T12:41:50.283Z,6632.00
2018-03-30T12:42:50.345Z,6844.00
2018-03-30T12:44:43.349Z,7184.00
2018-03-30T12:45:43.389Z,7408.00
2018-03-30T12:47:36.396Z,7528.00
2018-03-30T12:48:36.442Z,7352.00
2018-03-30T12:50:29.429Z,7340.00
2018-03-30T12:51:29.652Z,7412.00
2018-03-30T12:53:22.499Z,7916.00
2018-03-30T12:54:22.541Z,8288.00
2018-03-30T12:56:15.530Z,8664.00
2018-03-30T12:57:15.592Z,8864.00
2018-03-30T12:59:09.158Z,9868.00
2018-03-30T13:00:09.143Z,10468.00
2018-03-30T13:02:02.163Z,11420.00
2018-03-30T13:03:02.190Z,11328.00
2018-03-30T13:04:55.206Z,10856.00
2018-03-30T13:05:55.249Z,10760.00
2018-03-30T13:07:48.293Z,11008.00
2018-03-30T13:08:48.297Z,10960.00
2018-03-30T13:10:41.288Z,10952.00
2018-03-30T13:11:41.355Z,10744.00
2018-03-30T13:13:34.379Z,9612.00
2018-03-30T13:14:34.407Z,9628.00
2018-03-30T13:16:27.391Z,9988.00
2018-03-30T13:17:27.451Z,9804.00
2018-03-30T13:19:20.461Z,9500.00
2018-03-30T13:20:20.501Z,9364.00
2018-03-30T13:22:13.499Z,8952.00
2018-03-30T13:23:13.550Z,8620.00
2018-03-30T13:25:06.557Z,8360.00
2018-03-30T13:26:06.610Z,8396.00
2018-03-30T13:27:59.604Z,8296.00
2018-03-30T13:28:59.644Z,8140.00
2018-03-30T13:30:52.633Z,8136.00
2018-03-30T13:31:52.694Z,8148.00
2018-03-30T13:33:45.702Z,8072.00
2018-03-30T13:34:45.742Z,8252.00
2018-03-30T13:36:38.735Z,8372.00
2018-03-30T13:37:38.798Z,8508.00
2018-03-30T13:39:31.830Z,8896.00
2018-03-30T13:40:31.853Z,9148.00
2018-03-30T13:42:24.845Z,9760.00
2018-03-30T13:43:24.906Z,9944.00
2018-03-30T13:45:17.914Z,9884.00
2018-03-30T13:46:17.956Z,9824.00
2018-03-30T13:48:10.961Z,9728.00
2018-03-30T13:49:11.004Z,9784.00
2018-03-30T13:51:03.996Z,10256.00
2018-03-30T13:52:04.052Z,10200.00
2018-03-30T13:53:57.062Z,10232.00
2018-03-30T13:54:57.109Z,10296.00
2018-03-30T13:56:50.103Z,10248.00
2018-03-30T13:57:50.164Z,10128.00
2018-03-30T13:59:43.178Z,10224.00
2018-03-30T14:00:43.223Z,10344.00
2018-03-30T14:02:36.209Z,10052.00
2018-03-30T14:03:36.269Z,9720.00
2018-03-30T14:05:29.284Z,9356.00
2018-03-30T14:06:29.329Z,9320.00
2018-03-30T14:08:22.351Z,9140.00
2018-03-30T14:09:22.384Z,9048.00
2018-03-30T14:11:15.373Z,9424.00
2018-03-30T14:12:15.438Z,9468.00
2018-03-30T14:14:08.956Z,9352.00
2018-03-30T14:15:08.993Z,9232.00
2018-03-30T14:17:01.989Z,9164.00
2018-03-30T14:18:02.042Z,9284.00
2018-03-30T14:19:55.055Z,9188.00
2018-03-30T14:20:55.101Z,9136.00
2018-03-30T14:22:48.093Z,9248.00
2018-03-30T14:23:48.234Z,9256.00
2018-03-30T14:25:41.156Z,8788.00
2018-03-30T14:26:41.197Z,8584.00
2018-03-30T14:28:34.206Z,8852.00
2018-03-30T14:29:34.248Z,9264.00
2018-03-30T14:31:27.237Z,8996.00
2018-03-30T14:32:27.298Z,8696.00
2018-03-30T14:34:20.305Z,8620.00
2018-03-30T14:35:20.347Z,8840.00
2018-03-30T14:37:13.340Z,9176.00
2018-03-30T14:38:13.400Z,8960.00
2018-03-30T14:40:06.438Z,8628.00
2018-03-30T14:41:06.448Z,8588.00
2018-03-30T14:42:59.442Z,8608.00
2018-03-30T14:43:59.503Z,8584.00
2018-03-30T14:45:52.522Z,8352.00
2018-03-30T14:46:52.557Z,8276.00
2018-03-30T14:48:45.563Z,8444.00
2018-03-30T14:49:45.605Z,8520.00
2018-03-30T14:51:38.610Z,8400.00
2018-03-30T14:52:38.657Z,8404.00
2018-03-30T14:54:31.666Z,8288.00
2018-03-30T14:55:31.721Z,8220.00
2018-03-30T14:57:24.695Z,8036.00
2018-03-30T14:58:24.755Z,8008.00
2018-03-30T15:00:17.766Z,8104.00
2018-03-30T15:01:17.809Z,8028.00
2018-03-30T15:03:10.794Z,7828.00
2018-03-30T15:04:10.905Z,7808.00
2018-03-30T15:06:03.866Z,7788.00
2018-03-30T15:07:03.902Z,7676.00
2018-03-30T15:08:56.915Z,7524.00
2018-03-30T15:09:56.959Z,7300.00
2018-03-30T15:11:49.948Z,7108.00
2018-03-30T15:12:50.007Z,7176.00
2018-03-30T15:14:43.521Z,7064.00
2018-03-30T15:15:43.572Z,6936.00
2018-03-30T15:17:36.563Z,6988.00
2018-03-30T15:18:36.619Z,7012.00
2018-03-30T15:20:29.624Z,6844.00
2018-03-30T15:21:29.667Z,6708.00
2018-03-30T15:23:22.653Z,6428.00
2018-03-30T15:24:22.714Z,6316.00
2018-03-30T15:26:15.730Z,6384.00
2018-03-30T15:27:15.779Z,6368.00
2018-03-30T15:29:08.774Z,6380.00
2018-03-30T15:30:08.815Z,6392.00
2018-03-30T15:32:01.807Z,6340.00
2018-03-30T15:33:01.869Z,6312.00
2018-03-30T15:34:54.873Z,6180.00
2018-03-30T15:35:54.915Z,6056.00
2018-03-30T15:37:47.962Z,5860.00
2018-03-30T15:38:47.968Z,5832.00
2018-03-30T15:40:40.976Z,5816.00
2018-03-30T15:41:41.018Z,5736.00
2018-03-30T15:43:34.005Z,5688.00
2018-03-30T15:44:34.063Z,5796.00
2018-03-30T15:46:27.075Z,5744.00
2018-03-30T15:47:27.112Z,5720.00
2018-03-30T15:49:20.119Z,5468.00
2018-03-30T15:50:20.160Z,5228.00
2018-03-30T15:52:24.634Z,5132.00
2018-03-30T15:53:24.298Z,5152.00
2018-03-30T15:55:17.262Z,4992.00
2018-03-30T15:56:17.300Z,4736.00
2018-03-30T15:58:10.283Z,4488.00
2018-03-30T15:59:10.345Z,4628.00
2018-03-30T16:01:03.350Z,4816.00
2018-03-30T16:02:03.392Z,4764.00
2018-03-30T16:03:56.382Z,4552.00
2018-03-30T16:04:56.442Z,4468.00
2018-03-30T16:06:49.453Z,4420.00
2018-03-30T16:07:49.497Z,4372.00
2018-03-30T16:09:42.501Z,4064.00
2018-03-30T16:10:42.546Z,3916.00
2018-03-30T16:12:35.535Z,3916.00
2018-03-30T16:13:35.597Z,3984.00
2018-03-30T16:15:28.628Z,3992.00
2018-03-30T16:16:28.669Z,3892.00
2018-03-30T16:18:21.678Z,3800.00
2018-03-30T16:19:21.734Z,3820.00
2018-03-30T16:21:14.738Z,3740.00
2018-03-30T16:22:14.780Z,3644.00
2018-03-30T16:24:07.769Z,3436.00
2018-03-30T16:25:07.833Z,3384.00
2018-03-30T16:27:00.839Z,3412.00
2018-03-30T16:28:00.886Z,3404.00
2018-03-30T16:29:53.891Z,3244.00
2018-03-30T16:30:53.931Z,3092.00
2018-03-30T16:32:46.926Z,2880.00
2018-03-30T16:33:47.147Z,2872.00
2018-03-30T16:35:39.992Z,2912.00
2018-03-30T16:36:40.035Z,2912.00
2018-03-30T16:38:33.032Z,2852.00
2018-03-30T16:39:33.094Z,2828.00
2018-03-30T16:41:26.105Z,2780.00
2018-03-30T16:42:26.133Z,2776.00
2018-03-30T16:44:19.125Z,2692.00
2018-03-30T16:45:19.193Z,2636.00
2018-03-30T16:47:12.207Z,2536.00
2018-03-30T16:48:12.239Z,2504.00
2018-03-30T16:50:05.256Z,2372.00
2018-03-30T16:51:05.297Z,2244.00
2018-03-30T16:52:58.286Z,1952.00
2018-03-30T16:53:58.343Z,1864.00
2018-03-30T16:55:51.359Z,1784.00
2018-03-30T16:56:51.391Z,1764.00
2018-03-30T16:58:44.417Z,1724.00
2018-03-30T16:59:44.476Z,1668.00
2018-03-30T17:01:37.453Z,1520.00
2018-03-30T17:02:37.497Z,1464.00
2018-03-30T17:04:30.483Z,1372.00
2018-03-30T17:05:30.569Z,1324.00
2018-03-30T17:07:23.558Z,1244.00
2018-03-30T17:08:23.589Z,1180.00
2018-03-30T17:10:16.622Z,1076.00
2018-03-30T17:11:16.672Z,1060.00
2018-03-30T17:13:09.627Z,1032.00
2018-03-30T17:14:09.679Z,1004.00
2018-03-30T17:16:02.711Z,960.00
2018-03-30T17:17:02.727Z,948.00
2018-03-30T17:18:55.714Z,924.00
2018-03-30T17:19:55.770Z,900.00
2018-03-30T17:21:48.780Z,856.00
2018-03-30T17:22:48.821Z,852.00
2018-03-30T17:24:41.812Z,916.00
2018-03-30T17:25:41.867Z,976.00
2018-03-30T17:27:34.875Z,972.00
2018-03-30T17:28:34.910Z,940.00
2018-03-30T17:30:27.933Z,908.00
2018-03-30T17:31:27.970Z,876.00
2018-03-30T17:33:20.996Z,788.00
2018-03-30T17:34:21.021Z,736.00
2018-03-30T17:36:14.024Z,624.00
2018-03-30T17:37:14.083Z,568.00
2018-03-30T17:39:07.054Z,468.00
2018-03-30T17:40:07.111Z,432.00
2018-03-30T17:42:00.118Z,380.00
2018-03-30T17:43:00.156Z,356.00
2018-03-30T17:44:53.145Z,312.00
2018-03-30T17:45:53.233Z,296.00
2018-03-30T17:47:46.206Z,256.00
2018-03-30T17:48:46.246Z,236.00
2018-03-30T17:50:39.266Z,212.00
2018-03-30T17:51:39.305Z,200.00
2018-03-30T17:53:32.296Z,176.00